sensor_id;sensor_type;location;lat;lon;timestamp;pressure;altitude;pressure_sealevel;temperature;humidity
11856;BME280;5987;53.140;8.904;2023-02-11T00:01:59;103037.25;;;4.68;100.00
11856;BME280;5987;53.140;8.904;2023-02-11T00:05:05;103040.69;;;4.67;100.00
11856;BME280;5987;53.140;8.904;2023-02-11T00:08:10;103039.09;;;4.72;100.00
11856;BME280;5987;53.140;8.904;2023-02-11T00:11:20;103042.47;;;4.68;100.00
11856;BME280;5987;53.140;8.904;2023-02-11T00:14:24;103050.22;;;4.66;100.00
11856;BME280;5987;53.140;8.904;2023-02-11T00:17:28;103047.66;;;4.68;100.00
11856;BME280;5987;53.140;8.904;2023-02-11T00:20:32;103045.97;;;4.70;100.00
11856;BME280;5987;53.140;8.904;2023-02-11T00:23:37;103018.28;;;4.73;100.00
11856;BME280;5987;53.140;8.904;2023-02-11T00:26:41;103024.34;;;4.72;100.00
11856;BME280;5987;53.140;8.904;2023-02-11T00:29:46;103020.09;;;4.76;100.00
11856;BME280;5987;53.140;8.904;2023-02-11T00:32:50;103032.19;;;4.74;100.00
11856;BME280;5987;53.140;8.904;2023-02-11T00:35:53;103026.16;;;4.76;100.00
11856;BME280;5987;53.140;8.904;2023-02-11T00:38:59;103021.00;;;4.78;100.00
11856;BME280;5987;53.140;8.904;2023-02-11T00:42:03;103007.94;;;4.76;100.00
11856;BME280;5987;53.140;8.904;2023-02-11T00:45:07;102995.84;;;4.77;100.00
11856;BME280;5987;53.140;8.904;2023-02-11T00:48:12;102981.13;;;4.79;100.00
11856;BME280;5987;53.140;8.904;2023-02-11T00:51:16;102982.97;;;4.85;100.00
11856;BME280;5987;53.140;8.904;2023-02-11T00:54:21;102979.50;;;4.84;100.00
11856;BME280;5987;53.140;8.904;2023-02-11T00:57:25;102975.25;;;4.89;100.00
11856;BME280;5987;53.140;8.904;2023-02-11T01:00:28;102976.16;;;4.90;100.00
11856;BME280;5987;53.140;8.904;2023-02-11T01:03:32;102969.16;;;4.87;100.00
11856;BME280;5987;53.140;8.904;2023-02-11T01:06:36;102982.16;;;4.87;100.00
11856;BME280;5987;53.140;8.904;2023-02-11T01:09:41;102985.00;;;4.96;100.00
11856;BME280;5987;53.140;8.904;2023-02-11T01:12:45;102995.41;;;4.96;100.00
11856;BME280;5987;53.140;8.904;2023-02-11T01:15:49;103000.44;;;4.90;100.00
11856;BME280;5987;53.140;8.904;2023-02-11T01:18:53;102991.78;;;4.90;100.00
11856;BME280;5987;53.140;8.904;2023-02-11T01:21:57;102996.94;;;4.88;100.00
11856;BME280;5987;53.140;8.904;2023-02-11T01:25:02;102994.59;;;5.01;100.00
11856;BME280;5987;53.140;8.904;2023-02-11T01:28:09;102987.63;;;4.98;100.00
11856;BME280;5987;53.140;8.904;2023-02-11T01:31:15;102990.97;;;4.92;100.00
11856;BME280;5987;53.140;8.904;2023-02-11T01:34:19;102987.44;;;4.90;100.00
11856;BME280;5987;53.140;8.904;2023-02-11T01:37:22;102988.31;;;4.91;100.00
11856;BME280;5987;53.140;8.904;2023-02-11T01:40:27;102988.41;;;4.94;100.00
11856;BME280;5987;53.140;8.904;2023-02-11T01:43:36;102983.16;;;4.92;100.00
11856;BME280;5987;53.140;8.904;2023-02-11T01:46:40;102988.38;;;4.92;100.00
11856;BME280;5987;53.140;8.904;2023-02-11T01:49:47;102992.69;;;4.93;100.00
11856;BME280;5987;53.140;8.904;2023-02-11T01:52:52;102983.22;;;4.95;100.00
11856;BME280;5987;53.140;8.904;2023-02-11T01:56:19;102977.09;;;4.93;100.00
11856;BME280;5987;53.140;8.904;2023-02-11T01:59:47;102975.41;;;4.95;100.00
11856;BME280;5987;53.140;8.904;2023-02-11T02:03:01;102978.84;;;4.94;100.00
11856;BME280;5987;53.140;8.904;2023-02-11T02:06:15;102967.59;;;4.95;100.00
11856;BME280;5987;53.140;8.904;2023-02-11T02:09:26;102968.56;;;5.01;100.00
11856;BME280;5987;53.140;8.904;2023-02-11T02:12:32;102956.53;;;5.06;100.00
11856;BME280;5987;53.140;8.904;2023-02-11T02:15:38;102949.63;;;5.08;100.00
11856;BME280;5987;53.140;8.904;2023-02-11T02:18:53;102936.66;;;5.11;100.00
11856;BME280;5987;53.140;8.904;2023-02-11T02:22:38;102935.75;;;5.09;100.00
11856;BME280;5987;53.140;8.904;2023-02-11T02:26:26;102933.94;;;5.06;100.00
11856;BME280;5987;53.140;8.904;2023-02-11T02:30:09;102933.06;;;5.04;100.00
11856;BME280;5987;53.140;8.904;2023-02-11T02:33:32;102930.56;;;5.10;100.00
11856;BME280;5987;53.140;8.904;2023-02-11T02:36:44;102930.63;;;5.12;100.00
11856;BME280;5987;53.140;8.904;2023-02-11T02:39:49;102930.53;;;5.09;100.00
11856;BME280;5987;53.140;8.904;2023-02-11T02:42:55;102930.69;;;5.15;100.00
11856;BME280;5987;53.140;8.904;2023-02-11T02:46:15;102928.06;;;5.13;100.00
11856;BME280;5987;53.140;8.904;2023-02-11T02:49:20;102919.34;;;5.13;100.00
11856;BME280;5987;53.140;8.904;2023-02-11T02:52:35;102913.25;;;5.11;100.00
11856;BME280;5987;53.140;8.904;2023-02-11T02:55:59;102913.28;;;5.14;100.00
11856;BME280;5987;53.140;8.904;2023-02-11T02:59:32;102902.06;;;5.17;100.00
11856;BME280;5987;53.140;8.904;2023-02-11T03:02:51;102905.47;;;5.14;100.00
11856;BME280;5987;53.140;8.904;2023-02-11T03:06:08;102909.97;;;5.23;100.00
11856;BME280;5987;53.140;8.904;2023-02-11T03:09:24;102909.94;;;5.21;100.00
11856;BME280;5987;53.140;8.904;2023-02-11T03:12:32;102901.34;;;5.25;100.00
11856;BME280;5987;53.140;8.904;2023-02-11T03:15:42;102896.97;;;5.23;100.00
11856;BME280;5987;53.140;8.904;2023-02-11T03:18:52;102892.56;;;5.20;100.00
11856;BME280;5987;53.140;8.904;2023-02-11T03:22:05;102898.63;;;5.18;100.00
11856;BME280;5987;53.140;8.904;2023-02-11T03:25:10;102892.50;;;5.17;100.00
11856;BME280;5987;53.140;8.904;2023-02-11T03:28:22;102894.31;;;5.21;100.00
11856;BME280;5987;53.140;8.904;2023-02-11T03:31:38;102890.75;;;5.16;100.00
11856;BME280;5987;53.140;8.904;2023-02-11T03:34:51;102899.47;;;5.18;100.00
11856;BME280;5987;53.140;8.904;2023-02-11T03:38:03;102896.09;;;5.22;100.00
11856;BME280;5987;53.140;8.904;2023-02-11T03:41:09;102892.69;;;5.26;100.00
11856;BME280;5987;53.140;8.904;2023-02-11T03:44:16;102891.78;;;5.24;100.00
11856;BME280;5987;53.140;8.904;2023-02-11T03:47:25;102884.03;;;5.27;100.00
11856;BME280;5987;53.140;8.904;2023-02-11T03:50:32;102884.03;;;5.27;100.00
11856;BME280;5987;53.140;8.904;2023-02-11T03:53:44;102886.69;;;5.30;100.00
11856;BME280;5987;53.140;8.904;2023-02-11T03:56:54;102880.56;;;5.28;100.00
11856;BME280;5987;53.140;8.904;2023-02-11T03:59:59;102884.03;;;5.27;100.00
11856;BME280;5987;53.140;8.904;2023-02-11T04:03:03;102891.94;;;5.32;100.00
11856;BME280;5987;53.140;8.904;2023-02-11T04:06:07;102894.56;;;5.33;100.00
11856;BME280;5987;53.140;8.904;2023-02-11T04:09:12;102903.19;;;5.31;100.00
11856;BME280;5987;53.140;8.904;2023-02-11T04:12:17;102900.63;;;5.34;100.00
11856;BME280;5987;53.140;8.904;2023-02-11T04:15:20;102898.13;;;5.39;100.00
11856;BME280;5987;53.140;8.904;2023-02-11T04:18:24;102895.53;;;5.39;100.00
11856;BME280;5987;53.140;8.904;2023-02-11T04:21:28;102898.06;;;5.36;100.00
11856;BME280;5987;53.140;8.904;2023-02-11T04:24:34;102905.03;;;5.37;100.00
11856;BME280;5987;53.140;8.904;2023-02-11T04:27:37;102898.03;;;5.34;100.00
11856;BME280;5987;53.140;8.904;2023-02-11T04:30:41;102893.78;;;5.38;100.00
11856;BME280;5987;53.140;8.904;2023-02-11T04:33:45;102887.72;;;5.39;100.00
11856;BME280;5987;53.140;8.904;2023-02-11T04:36:49;102892.06;;;5.40;100.00
11856;BME280;5987;53.140;8.904;2023-02-11T04:39:54;102893.78;;;5.39;100.00
11856;BME280;5987;53.140;8.904;2023-02-11T04:42:58;102899.03;;;5.41;100.00
11856;BME280;5987;53.140;8.904;2023-02-11T04:46:01;102898.19;;;5.42;100.00
11856;BME280;5987;53.140;8.904;2023-02-11T04:49:05;102899.03;;;5.41;100.00
11856;BME280;5987;53.140;8.904;2023-02-11T04:52:09;102894.75;;;5.44;100.00
11856;BME280;5987;53.140;8.904;2023-02-11T04:55:14;102896.47;;;5.44;100.00
11856;BME280;5987;53.140;8.904;2023-02-11T04:58:18;102888.63;;;5.42;100.00
11856;BME280;5987;53.140;8.904;2023-02-11T05:01:22;102891.28;;;5.45;100.00
11856;BME280;5987;53.140;8.904;2023-02-11T05:04:26;102886.97;;;5.46;100.00
11856;BME280;5987;53.140;8.904;2023-02-11T05:07:30;102882.66;;;5.48;100.00
11856;BME280;5987;53.140;8.904;2023-02-11T05:10:35;102873.94;;;5.46;100.00
11856;BME280;5987;53.140;8.904;2023-02-11T05:13:39;102864.41;;;5.48;100.00
11856;BME280;5987;53.140;8.904;2023-02-11T05:16:43;102865.41;;;5.55;100.00
11856;BME280;5987;53.140;8.904;2023-02-11T05:19:47;102870.59;;;5.53;100.00
11856;BME280;5987;53.140;8.904;2023-02-11T05:22:51;102871.44;;;5.52;100.00
11856;BME280;5987;53.140;8.904;2023-02-11T05:25:56;102872.34;;;5.54;100.00
11856;BME280;5987;53.140;8.904;2023-02-11T05:28:59;102886.22;;;5.53;100.00
11856;BME280;5987;53.140;8.904;2023-02-11T05:32:03;102877.56;;;5.54;100.00
11856;BME280;5987;53.140;8.904;2023-02-11T05:35:08;102895.03;;;5.60;100.00
11856;BME280;5987;53.140;8.904;2023-02-11T05:38:12;102897.63;;;5.60;100.00
11856;BME280;5987;53.140;8.904;2023-02-11T05:41:17;102888.94;;;5.61;100.00
11856;BME280;5987;53.140;8.904;2023-02-11T05:44:21;102894.25;;;5.64;100.00
11856;BME280;5987;53.140;8.904;2023-02-11T05:47:25;102893.28;;;5.59;100.00
11856;BME280;5987;53.140;8.904;2023-02-11T05:50:29;102885.47;;;5.60;100.00
11856;BME280;5987;53.140;8.904;2023-02-11T05:53:32;102888.88;;;5.56;100.00
11856;BME280;5987;53.140;8.904;2023-02-11T05:56:38;102893.25;;;5.57;100.00
11856;BME280;5987;53.140;8.904;2023-02-11T05:59:45;102889.72;;;5.55;100.00
11856;BME280;5987;53.140;8.904;2023-02-11T06:02:49;102897.63;;;5.60;100.00
11856;BME280;5987;53.140;8.904;2023-02-11T06:05:53;102897.63;;;5.60;100.00
11856;BME280;5987;53.140;8.904;2023-02-11T06:08:57;102894.06;;;5.55;100.00
11856;BME280;5987;53.140;8.904;2023-02-11T06:12:02;102893.25;;;5.57;100.00
11856;BME280;5987;53.140;8.904;2023-02-11T06:15:07;102892.31;;;5.54;100.00
11856;BME280;5987;53.140;8.904;2023-02-11T06:18:11;102890.63;;;5.57;100.00
11856;BME280;5987;53.140;8.904;2023-02-11T06:21:14;102894.09;;;5.56;100.00
11856;BME280;5987;53.140;8.904;2023-02-11T06:24:18;102896.66;;;5.53;100.00
11856;BME280;5987;53.140;8.904;2023-02-11T06:27:43;102893.13;;;5.51;100.00
11856;BME280;5987;53.140;8.904;2023-02-11T06:30:47;102887.03;;;5.50;100.00
11856;BME280;5987;53.140;8.904;2023-02-11T06:33:51;102893.13;;;5.51;100.00
11856;BME280;5987;53.140;8.904;2023-02-11T06:36:56;102891.44;;;5.53;100.00
11856;BME280;5987;53.140;8.904;2023-02-11T06:39:59;102894.97;;;5.57;100.00
11856;BME280;5987;53.140;8.904;2023-02-11T06:43:05;102906.25;;;5.56;100.00
11856;BME280;5987;53.140;8.904;2023-02-11T06:46:09;102896.66;;;5.53;100.00
11856;BME280;5987;53.140;8.904;2023-02-11T06:49:13;102900.09;;;5.52;100.00
11856;BME280;5987;53.140;8.904;2023-02-11T06:52:16;102892.28;;;5.52;100.00
11856;BME280;5987;53.140;8.904;2023-02-11T06:55:20;102891.38;;;5.50;100.00
11856;BME280;5987;53.140;8.904;2023-02-11T06:58:25;102887.06;;;5.52;100.00
11856;BME280;5987;53.140;8.904;2023-02-11T07:01:29;102895.91;;;5.60;100.00
11856;BME280;5987;53.140;8.904;2023-02-11T07:04:33;102894.13;;;5.58;100.00
11856;BME280;5987;53.140;8.904;2023-02-11T07:07:37;102889.88;;;5.64;100.00
11856;BME280;5987;53.140;8.904;2023-02-11T07:10:41;102886.41;;;5.64;100.00
11856;BME280;5987;53.140;8.904;2023-02-11T07:13:46;102896.88;;;5.67;100.00
11856;BME280;5987;53.140;8.904;2023-02-11T07:16:50;102890.78;;;5.66;100.00
11856;BME280;5987;53.140;8.904;2023-02-11T07:19:54;102905.56;;;5.67;100.00
11856;BME280;5987;53.140;8.904;2023-02-11T07:22:58;102901.41;;;5.77;100.00
11856;BME280;5987;53.140;8.904;2023-02-11T07:26:03;102907.44;;;5.75;100.00
11856;BME280;5987;53.140;8.904;2023-02-11T07:29:08;102908.38;;;5.78;100.00
11856;BME280;5987;53.140;8.904;2023-02-11T07:32:12;102924.03;;;5.80;100.00
11856;BME280;5987;53.140;8.904;2023-02-11T07:35:16;102926.63;;;5.78;100.00
11856;BME280;5987;53.140;8.904;2023-02-11T07:38:20;102941.44;;;5.81;100.00
11856;BME280;5987;53.140;8.904;2023-02-11T07:41:27;102951.91;;;5.84;100.00
11856;BME280;5987;53.140;8.904;2023-02-11T07:44:35;102946.69;;;5.82;100.00
11856;BME280;5987;53.140;8.904;2023-02-11T07:47:39;102935.47;;;5.88;100.00
11856;BME280;5987;53.140;8.904;2023-02-11T07:50:44;102947.72;;;5.92;100.00
11856;BME280;5987;53.140;8.904;2023-02-11T07:53:48;102952.03;;;5.92;100.00
11856;BME280;5987;53.140;8.904;2023-02-11T07:56:55;102945.16;;;5.97;100.00
11856;BME280;5987;53.140;8.904;2023-02-11T08:00:04;102943.41;;;5.96;100.00
11856;BME280;5987;53.140;8.904;2023-02-11T08:03:08;102942.53;;;5.95;100.00
11856;BME280;5987;53.140;8.904;2023-02-11T08:06:14;102951.28;;;5.97;100.00
11856;BME280;5987;53.140;8.904;2023-02-11T08:09:21;102947.88;;;6.01;100.00
11856;BME280;5987;53.140;8.904;2023-02-11T08:12:30;102946.16;;;6.00;100.00
11856;BME280;5987;53.140;8.904;2023-02-11T08:15:50;102967.91;;;6.04;100.00
11856;BME280;5987;53.140;8.904;2023-02-11T08:18:57;102970.50;;;6.03;100.00
11856;BME280;5987;53.140;8.904;2023-02-11T08:22:01;102972.22;;;6.00;100.00
11856;BME280;5987;53.140;8.904;2023-02-11T08:25:05;102981.78;;;6.01;100.00
11856;BME280;5987;53.140;8.904;2023-02-11T08:28:09;102987.88;;;6.00;100.00
11856;BME280;5987;53.140;8.904;2023-02-11T08:31:17;102995.75;;;6.04;100.00
11856;BME280;5987;53.140;8.904;2023-02-11T08:34:21;102994.00;;;6.04;100.00
11856;BME280;5987;53.140;8.904;2023-02-11T08:37:25;102997.53;;;6.06;100.00
11856;BME280;5987;53.140;8.904;2023-02-11T08:40:29;103009.66;;;6.04;100.00
11856;BME280;5987;53.140;8.904;2023-02-11T08:43:33;103001.88;;;6.09;100.00
11856;BME280;5987;53.140;8.904;2023-02-11T08:46:38;103011.56;;;6.16;100.00
11856;BME280;5987;53.140;8.904;2023-02-11T08:49:42;103008.06;;;6.14;100.00
11856;BME280;5987;53.140;8.904;2023-02-11T08:52:45;103006.31;;;6.13;100.00
11856;BME280;5987;53.140;8.904;2023-02-11T08:55:49;103009.81;;;6.13;100.00
11856;BME280;5987;53.140;8.904;2023-02-11T08:58:54;103017.78;;;6.23;100.00
11856;BME280;5987;53.140;8.904;2023-02-11T09:01:59;103013.44;;;6.22;100.00
11856;BME280;5987;53.140;8.904;2023-02-11T09:05:03;103014.22;;;6.17;100.00
11856;BME280;5987;53.140;8.904;2023-02-11T09:08:07;103010.81;;;6.22;100.00
11856;BME280;5987;53.140;8.904;2023-02-11T09:11:11;103018.53;;;6.15;100.00
11856;BME280;5987;53.140;8.904;2023-02-11T09:14:20;103028.19;;;6.21;100.00
11856;BME280;5987;53.140;8.904;2023-02-11T09:17:25;103029.00;;;6.18;100.00
11856;BME280;5987;53.140;8.904;2023-02-11T09:20:29;103034.31;;;6.23;100.00
11856;BME280;5987;53.140;8.904;2023-02-11T09:23:34;103042.06;;;6.20;100.00
11856;BME280;5987;53.140;8.904;2023-02-11T09:26:40;103042.16;;;6.25;100.00
11856;BME280;5987;53.140;8.904;2023-02-11T09:29:45;103040.47;;;6.28;100.00
11856;BME280;5987;53.140;8.904;2023-02-11T09:32:50;103052.63;;;6.26;100.00
11856;BME280;5987;53.140;8.904;2023-02-11T09:35:53;103055.44;;;6.37;100.00
11856;BME280;5987;53.140;8.904;2023-02-11T09:39:00;103057.09;;;6.33;100.00
11856;BME280;5987;53.140;8.904;2023-02-11T09:42:32;103046.78;;;6.41;100.00
11856;BME280;5987;53.140;8.904;2023-02-11T09:45:40;103045.16;;;6.48;100.00
11856;BME280;5987;53.140;8.904;2023-02-11T09:48:48;103059.91;;;6.44;100.00
11856;BME280;5987;53.140;8.904;2023-02-11T09:52:02;103068.59;;;6.45;100.00
11856;BME280;5987;53.140;8.904;2023-02-11T09:55:18;103066.78;;;6.41;100.00
11856;BME280;5987;53.140;8.904;2023-02-11T09:58:27;103072.00;;;6.41;100.00
11856;BME280;5987;53.140;8.904;2023-02-11T10:01:38;103055.53;;;6.45;100.00
11856;BME280;5987;53.140;8.904;2023-02-11T10:05:12;103072.94;;;6.44;100.00
11856;BME280;5987;53.140;8.904;2023-02-11T10:08:33;103069.38;;;6.41;100.00
11856;BME280;5987;53.140;8.904;2023-02-11T10:11:52;103073.75;;;6.40;100.00
11856;BME280;5987;53.140;8.904;2023-02-11T10:15:20;103075.44;;;6.40;100.00
11856;BME280;5987;53.140;8.904;2023-02-11T10:18:59;103068.59;;;6.45;100.00
11856;BME280;5987;53.140;8.904;2023-02-11T10:22:17;103069.44;;;6.45;100.00
11856;BME280;5987;53.140;8.904;2023-02-11T10:25:25;103059.00;;;6.44;100.00
11856;BME280;5987;53.140;8.904;2023-02-11T10:28:32;103071.25;;;6.48;100.00
11856;BME280;5987;53.140;8.904;2023-02-11T10:31:41;103087.88;;;6.55;100.00
11856;BME280;5987;53.140;8.904;2023-02-11T10:34:46;103094.78;;;6.51;100.00
11856;BME280;5987;53.140;8.904;2023-02-11T10:37:52;103100.06;;;6.54;100.00
11856;BME280;5987;53.140;8.904;2023-02-11T10:40:55;103101.81;;;6.55;100.00
11856;BME280;5987;53.140;8.904;2023-02-11T10:44:00;103090.31;;;6.44;100.00
11856;BME280;5987;53.140;8.904;2023-02-11T10:47:12;103083.41;;;6.46;100.00
11856;BME280;5987;53.140;8.904;2023-02-11T10:50:23;103093.94;;;6.53;100.00
11856;BME280;5987;53.140;8.904;2023-02-11T10:53:28;103093.97;;;6.55;100.00
11856;BME280;5987;53.140;8.904;2023-02-11T10:56:35;103106.34;;;6.65;100.00
11856;BME280;5987;53.140;8.904;2023-02-11T10:59:40;103108.16;;;6.69;100.00
11856;BME280;5987;53.140;8.904;2023-02-11T11:02:52;103110.84;;;6.76;100.00
11856;BME280;5987;53.140;8.904;2023-02-11T11:06:00;103107.22;;;6.66;100.00
11856;BME280;5987;53.140;8.904;2023-02-11T11:09:05;103100.19;;;6.63;100.00
11856;BME280;5987;53.140;8.904;2023-02-11T11:12:35;103100.25;;;6.66;100.00
11856;BME280;5987;53.140;8.904;2023-02-11T11:15:43;103105.41;;;6.63;100.00
11856;BME280;5987;53.140;8.904;2023-02-11T11:18:49;103110.66;;;6.63;100.00
11856;BME280;5987;53.140;8.904;2023-02-11T11:21:56;103115.91;;;6.66;100.00
11856;BME280;5987;53.140;8.904;2023-02-11T11:25:01;103111.56;;;6.65;100.00
11856;BME280;5987;53.140;8.904;2023-02-11T11:28:05;103123.75;;;6.66;100.00
11856;BME280;5987;53.140;8.904;2023-02-11T11:31:15;103128.94;;;6.65;100.00
11856;BME280;5987;53.140;8.904;2023-02-11T11:34:28;103133.28;;;6.64;100.00
11856;BME280;5987;53.140;8.904;2023-02-11T11:37:35;103127.91;;;6.55;100.00
11856;BME280;5987;53.140;8.904;2023-02-11T11:40:40;103126.16;;;6.54;100.00
11856;BME280;5987;53.140;8.904;2023-02-11T11:43:58;103121.78;;;6.51;100.00
11856;BME280;5987;53.140;8.904;2023-02-11T11:47:26;103125.31;;;6.57;100.00
11856;BME280;5987;53.140;8.904;2023-02-11T11:50:36;103126.25;;;6.60;100.00
11856;BME280;5987;53.140;8.904;2023-02-11T11:53:49;103124.53;;;6.61;100.00
11856;BME280;5987;53.140;8.904;2023-02-11T11:57:16;103129.84;;;6.65;100.00
11856;BME280;5987;53.140;8.904;2023-02-11T12:00:31;103131.56;;;6.66;100.00
11856;BME280;5987;53.140;8.904;2023-02-11T12:07:46;103098.72;;;6.79;100.00
11856;BME280;5987;53.140;8.904;2023-02-11T12:11:03;103102.16;;;6.77;100.00
11856;BME280;5987;53.140;8.904;2023-02-11T12:14:23;103102.22;;;6.80;100.00
11856;BME280;5987;53.140;8.904;2023-02-11T12:17:50;103103.22;;;6.90;100.00
11856;BME280;5987;53.140;8.904;2023-02-11T12:24:52;103099.91;;;7.01;100.00
11856;BME280;5987;53.140;8.904;2023-02-11T12:28:16;103105.25;;;7.09;100.00
11856;BME280;5987;53.140;8.904;2023-02-11T12:31:41;103096.59;;;7.12;100.00
11856;BME280;5987;53.140;8.904;2023-02-11T12:35:12;103098.41;;;7.16;100.00
11856;BME280;5987;53.140;8.904;2023-02-11T12:38:35;103097.63;;;7.23;100.00
11856;BME280;5987;53.140;8.904;2023-02-11T12:42:10;103102.84;;;7.23;100.00
11856;BME280;5987;53.140;8.904;2023-02-11T12:49:38;103081.97;;;7.26;100.00
11856;BME280;5987;53.140;8.904;2023-02-11T12:53:16;103089.94;;;7.35;100.00
11856;BME280;5987;53.140;8.904;2023-02-11T12:56:34;103092.47;;;7.29;100.00
11856;BME280;5987;53.140;8.904;2023-02-11T12:59:51;103102.19;;;7.41;100.00
11856;BME280;5987;53.140;8.904;2023-02-11T13:03:04;103097.75;;;7.35;100.00
11856;BME280;5987;53.140;8.904;2023-02-11T13:06:15;103096.06;;;7.37;100.00
11856;BME280;5987;53.140;8.904;2023-02-11T13:09:26;103096.97;;;7.41;100.00
11856;BME280;5987;53.140;8.904;2023-02-11T13:12:34;103105.72;;;7.42;100.00
11856;BME280;5987;53.140;8.904;2023-02-11T13:16:02;103113.50;;;7.38;100.00
11856;BME280;5987;53.140;8.904;2023-02-11T13:19:20;103122.25;;;7.42;100.00
11856;BME280;5987;53.140;8.904;2023-02-11T13:22:34;103123.88;;;7.32;100.00
11856;BME280;5987;53.140;8.904;2023-02-11T13:25:47;103124.84;;;7.39;100.00
11856;BME280;5987;53.140;8.904;2023-02-11T13:28:59;103118.56;;;7.26;100.00
11856;BME280;5987;53.140;8.904;2023-02-11T13:32:12;103124.66;;;7.27;100.00
11856;BME280;5987;53.140;8.904;2023-02-11T13:35:28;103124.66;;;7.27;100.00
11856;BME280;5987;53.140;8.904;2023-02-11T13:38:34;103129.91;;;7.28;100.00
11856;BME280;5987;53.140;8.904;2023-02-11T13:41:40;103127.25;;;7.25;100.00
11856;BME280;5987;53.140;8.904;2023-02-11T13:44:46;103129.09;;;7.32;100.00
11856;BME280;5987;53.140;8.904;2023-02-11T13:47:56;103134.28;;;7.29;100.00
11856;BME280;5987;53.140;8.904;2023-02-11T13:51:04;103136.03;;;7.29;100.00
11856;BME280;5987;53.140;8.904;2023-02-11T13:54:23;103135.03;;;7.20;100.00
11856;BME280;5987;53.140;8.904;2023-02-11T13:57:36;103136.84;;;7.26;100.00
11856;BME280;5987;53.140;8.904;2023-02-11T14:00:47;103136.84;;;7.25;100.00
11856;BME280;5987;53.140;8.904;2023-02-11T14:04:19;103132.50;;;7.28;100.00
11856;BME280;5987;53.140;8.904;2023-02-11T14:08:20;103145.56;;;7.28;100.00
11856;BME280;5987;53.140;8.904;2023-02-11T14:11:47;103145.72;;;7.36;100.00
11856;BME280;5987;53.140;8.904;2023-02-11T14:18:57;103137.66;;;7.22;100.00
11856;BME280;5987;53.140;8.904;2023-02-11T14:22:03;103143.69;;;7.16;100.00
11856;BME280;5987;53.140;8.904;2023-02-11T14:25:19;103152.47;;;7.21;100.00
11856;BME280;5987;53.140;8.904;2023-02-11T14:28:28;103161.25;;;7.27;100.00
11856;BME280;5987;53.140;8.904;2023-02-11T14:31:42;103160.25;;;7.20;100.00
11856;BME280;5987;53.140;8.904;2023-02-11T14:34:58;103161.09;;;7.16;100.00
11856;BME280;5987;53.140;8.904;2023-02-11T14:38:19;103162.00;;;7.18;100.00
11856;BME280;5987;53.140;8.904;2023-02-11T14:41:31;103148.13;;;7.22;100.00
11856;BME280;5987;53.140;8.904;2023-02-11T14:44:40;103159.47;;;7.26;100.00
11856;BME280;5987;53.140;8.904;2023-02-11T14:47:50;103160.25;;;7.20;100.00
11856;BME280;5987;53.140;8.904;2023-02-11T14:51:02;103168.09;;;7.18;100.00
11856;BME280;5987;53.140;8.904;2023-02-11T14:54:13;103174.19;;;7.17;100.00
11856;BME280;5987;53.140;8.904;2023-02-11T14:57:19;103168.88;;;7.13;100.00
11856;BME280;5987;53.140;8.904;2023-02-11T15:00:24;103167.19;;;7.15;100.00
11856;BME280;5987;53.140;8.904;2023-02-11T15:03:35;103175.00;;;7.13;100.00
11856;BME280;5987;53.140;8.904;2023-02-11T15:06:41;103175.84;;;7.14;100.00
11856;BME280;5987;53.140;8.904;2023-02-11T15:09:52;103173.25;;;7.14;100.00
11856;BME280;5987;53.140;8.904;2023-02-11T15:12:58;103184.47;;;7.08;100.00
11856;BME280;5987;53.140;8.904;2023-02-11T15:16:08;103186.28;;;7.11;100.00
11856;BME280;5987;53.140;8.904;2023-02-11T15:19:21;103183.66;;;7.11;100.00
11856;BME280;5987;53.140;8.904;2023-02-11T15:22:30;103173.19;;;7.09;100.00
11856;BME280;5987;53.140;8.904;2023-02-11T15:25:43;103179.28;;;7.11;100.00
11856;BME280;5987;53.140;8.904;2023-02-11T15:28:47;103184.47;;;7.07;100.00
11856;BME280;5987;53.140;8.904;2023-02-11T15:32:11;103184.47;;;7.07;100.00
11856;BME280;5987;53.140;8.904;2023-02-11T15:35:17;103193.16;;;7.06;100.00
11856;BME280;5987;53.140;8.904;2023-02-11T15:38:22;103193.16;;;7.06;100.00
11856;BME280;5987;53.140;8.904;2023-02-11T15:41:35;103194.91;;;7.07;100.00
11856;BME280;5987;53.140;8.904;2023-02-11T15:44:39;103190.47;;;7.01;100.00
11856;BME280;5987;53.140;8.904;2023-02-11T15:47:51;103194.75;;;6.97;100.00
11856;BME280;5987;53.140;8.904;2023-02-11T15:50:59;103207.88;;;7.00;100.00
11856;BME280;5987;53.140;8.904;2023-02-11T15:54:13;103205.19;;;6.97;100.00
11856;BME280;5987;53.140;8.904;2023-02-11T15:57:20;103210.53;;;7.03;100.00
11856;BME280;5987;53.140;8.904;2023-02-11T16:00:32;103211.28;;;6.96;100.00
11856;BME280;5987;53.140;8.904;2023-02-11T16:03:41;103214.75;;;6.95;100.00
11856;BME280;5987;53.140;8.904;2023-02-11T16:06:45;103213.91;;;6.96;100.00
11856;BME280;5987;53.140;8.904;2023-02-11T16:09:57;103219.09;;;6.95;100.00
11856;BME280;5987;53.140;8.904;2023-02-11T16:13:18;103215.63;;;6.97;100.00
11856;BME280;5987;53.140;8.904;2023-02-11T16:16:25;103222.53;;;6.92;100.00
11856;BME280;5987;53.140;8.904;2023-02-11T16:19:33;103220.78;;;6.91;100.00
11856;BME280;5987;53.140;8.904;2023-02-11T16:22:37;103228.69;;;6.97;100.00
11856;BME280;5987;53.140;8.904;2023-02-11T16:25:41;103217.31;;;6.92;100.00
11856;BME280;5987;53.140;8.904;2023-02-11T16:28:45;103212.03;;;6.89;100.00
11856;BME280;5987;53.140;8.904;2023-02-11T16:31:51;103220.75;;;6.90;100.00
11856;BME280;5987;53.140;8.904;2023-02-11T16:34:58;103221.56;;;6.85;100.00
11856;BME280;5987;53.140;8.904;2023-02-11T16:38:03;103234.69;;;6.92;100.00
11856;BME280;5987;53.140;8.904;2023-02-11T16:41:06;103240.81;;;6.92;100.00
11856;BME280;5987;53.140;8.904;2023-02-11T16:44:13;103233.75;;;6.86;100.00
11856;BME280;5987;53.140;8.904;2023-02-11T16:47:24;103241.44;;;6.79;100.00
11856;BME280;5987;53.140;8.904;2023-02-11T16:50:31;103231.81;;;6.76;100.00
11856;BME280;5987;53.140;8.904;2023-02-11T16:53:34;103240.50;;;6.74;100.00
11856;BME280;5987;53.140;8.904;2023-02-11T16:56:39;103230.91;;;6.73;100.00
11856;BME280;5987;53.140;8.904;2023-02-11T16:59:43;103237.03;;;6.76;100.00